Time;durP1;ratioP1;P1;durP2;ratioP2;P2;SDS_P1;SDS_P2;PMS_P1;PMS_P2;Temp;Humidity;BMP_temperature;BMP_pressure;BME280_temperature;BME280_humidity;BME280_pressure;Samples;Min_cycle;Max_cycle;Signal;HPM_P1;HPM_P2
2022/10/24 00:01:21;;;;;;;19.50;12.50;;;;;;;10.59;90.07;100021.55;2128006;81;21346;-74
2022/10/24 00:04:22;;;;;;;23.50;11.28;;;;;;;10.58;90.15;100016.41;2124483;82;21514;-74
2022/10/24 00:07:24;;;;;;;16.75;10.72;;;;;;;10.58;90.21;100009.27;2127762;82;21101;-76
2022/10/24 00:10:27;;;;;;;18.70;11.60;;;;;;;10.58;90.23;100019.87;2125868;82;21132;-74
2022/10/24 00:13:28;;;;;;;16.77;11.45;;;;;;;10.59;90.28;100014.06;2131489;82;21022;-74
2022/10/24 00:16:29;;;;;;;20.37;11.55;;;;;;;10.61;90.32;100019.53;2128315;82;20971;-74
2022/10/24 00:19:30;;;;;;;14.93;11.03;;;;;;;10.64;90.29;100016.54;2129735;82;21360;-73
2022/10/24 00:22:31;;;;;;;16.48;10.88;;;;;;;10.65;90.23;100026.18;2129150;82;21018;-75
2022/10/24 00:25:32;;;;;;;17.60;10.88;;;;;;;10.66;90.24;100033.13;2108238;82;20983;-74
2022/10/24 00:28:36;;;;;;;21.17;10.58;;;;;;;10.70;90.20;100043.75;2132414;82;21105;-74
2022/10/24 00:31:38;;;;;;;20.45;11.10;;;;;;;10.71;90.18;100053.36;2130841;82;21041;-74
2022/10/24 00:34:39;;;;;;;23.18;12.75;;;;;;;10.74;90.15;100049.55;2131391;82;21022;-74
2022/10/24 00:37:40;;;;;;;18.82;12.70;;;;;;;10.74;90.28;100051.69;2128905;82;20982;-74
2022/10/24 00:40:42;;;;;;;16.40;10.88;;;;;;;10.74;90.25;100056.17;2130651;82;21541;-74
2022/10/24 00:43:44;;;;;;;20.17;12.45;;;;;;;10.75;90.25;100075.89;2136225;82;21543;-74
2022/10/24 00:46:59;;;;;;;17.32;12.47;;;;;;;10.72;90.36;100048.38;2122363;82;21477;-74
2022/10/24 00:50:13;;;;;;;20.08;11.97;;;;;;;10.70;90.55;100050.86;2135492;82;21026;-74
2022/10/24 00:53:15;;;;;;;15.00;10.40;;;;;;;10.69;90.58;100061.98;2129833;82;20997;-75
2022/10/24 00:56:21;;;;;;;23.50;11.28;;;;;;;10.70;90.61;100055.70;2127320;82;21073;-74
2022/10/24 00:59:23;;;;;;;17.90;10.48;;;;;;;10.72;90.63;100037.75;2136353;82;21025;-75
2022/10/24 01:02:25;;;;;;;15.88;11.40;;;;;;;10.73;90.64;100026.16;2143311;82;21076;-75
2022/10/24 01:05:37;;;;;;;14.70;10.78;;;;;;;10.71;91.08;100026.82;2137913;82;21069;-74
2022/10/24 01:09:08;;;;;;;18.17;12.03;;;;;;;10.70;91.41;100017.69;2131507;82;21494;-75
2022/10/24 01:12:16;;;;;;;;;;;;;;;10.70;91.27;100010.58;2130446;82;21014;-76
2022/10/24 01:15:25;;;;;;;14.60;10.98;;;;;;;10.72;91.29;100006.41;2138610;82;20096;-74
2022/10/24 01:18:47;;;;;;;18.07;10.80;;;;;;;10.74;91.37;99997.79;2141508;82;21049;-75
2022/10/24 01:21:58;;;;;;;17.30;10.43;;;;;;;10.74;91.33;99973.91;2138288;82;21045;-74
2022/10/24 01:25:17;;;;;;;20.15;10.95;;;;;;;10.73;91.72;99981.55;2141692;82;21560;-74
2022/10/24 01:28:23;;;;;;;16.32;11.85;;;;;;;10.75;91.87;99992.80;2137736;82;21033;-73
2022/10/24 01:31:33;;;;;;;19.15;12.30;;;;;;;10.75;92.29;99985.66;2134317;82;21131;-74
2022/10/24 01:34:45;;;;;;;18.82;12.00;;;;;;;10.76;92.00;99975.90;2135063;82;21936;-75
2022/10/24 01:38:19;;;;;;;17.75;11.05;;;;;;;10.77;92.17;99970.91;2140084;82;21585;-75
2022/10/24 01:41:26;;;;;;;16.67;10.95;;;;;;;10.76;92.49;99958.65;2142211;82;21119;-76
2022/10/24 01:44:35;;;;;;;19.95;12.75;;;;;;;10.76;92.65;99949.36;2137455;82;21048;-75
2022/10/24 01:47:42;;;;;;;22.00;13.05;;;;;;;10.76;92.78;99943.55;2138690;82;21022;-79
2022/10/24 01:50:46;;;;;;;16.10;10.63;;;;;;;10.67;92.57;99908.77;2139036;82;21007;-76
2022/10/24 01:53:50;;;;;;;14.87;10.28;;;;;;;10.67;92.57;99908.77;2138587;82;21032;-75
2022/10/24 01:56:51;;;;;;;16.27;10.23;;;;;;;10.81;92.42;99930.25;2130233;82;21414;-75
2022/10/24 01:59:53;;;;;;;14.45;10.78;;;;;;;10.84;92.43;99929.90;2132536;82;21104;-74
2022/10/24 02:03:19;;;;;;;14.73;10.68;;;;;;;10.83;92.22;99922.44;2126284;82;21573;-75
2022/10/24 02:06:30;;;;;;;12.70;9.78;;;;;;;10.84;92.22;99924.11;2129403;82;21120;-76
2022/10/24 02:09:34;;;;;;;15.95;9.70;;;;;;;10.83;92.04;99916.31;2132750;82;21085;-74
2022/10/24 02:12:40;;;;;;;18.80;12.18;;;;;;;10.83;92.04;99913.16;2127586;82;20955;-75
2022/10/24 02:15:46;;;;;;;16.62;10.03;;;;;;;10.82;91.96;99910.69;2133714;82;21061;-80
2022/10/24 02:18:52;;;;;;;19.10;10.98;;;;;;;10.82;91.97;99898.74;2127181;82;20959;-75
2022/10/24 02:22:04;;;;;;;15.38;10.90;;;;;;;10.83;91.91;99921.62;2133478;82;21532;-75
2022/10/24 02:25:22;;;;;;;15.25;10.05;;;;;;;10.84;91.89;99923.27;2131414;82;21558;-75
2022/10/24 02:28:29;;;;;;;15.48;10.82;;;;;;;10.83;91.83;99911.83;2124212;82;21082;-75
2022/10/24 02:31:35;;;;;;;13.40;10.43;;;;;;;10.85;91.84;99912.48;2086694;84;22318;-75
2022/10/24 02:34:39;;;;;;;17.65;10.88;;;;;;;10.86;91.92;99908.00;2062551;84;21066;-75
2022/10/24 02:37:48;;;;;;;13.58;10.53;;;;;;;10.85;91.87;99918.30;2091367;84;21064;-74
2022/10/24 02:40:52;;;;;;;17.55;10.30;;;;;;;10.87;91.75;99922.91;2086796;84;21005;-74
2022/10/24 02:43:55;;;;;;;12.68;10.25;;;;;;;10.87;91.77;99930.41;2099684;84;20991;-74
2022/10/24 02:46:59;;;;;;;16.85;10.13;;;;;;;10.88;91.72;99932.55;2145204;82;20989;-75
2022/10/24 02:50:01;;;;;;;17.70;10.65;;;;;;;10.87;91.62;99929.55;2143008;82;21045;-77
2022/10/24 02:53:03;;;;;;;13.88;9.90;;;;;;;10.87;91.52;99937.52;2129403;82;21049;-75
2022/10/24 02:56:05;;;;;;;12.03;10.20;;;;;;;10.84;91.44;99935.20;2133584;82;21010;-74
2022/10/24 02:59:06;;;;;;;17.73;11.18;;;;;;;10.84;91.45;99931.23;2131175;82;21122;-75
2022/10/24 03:02:08;;;;;;;13.70;10.70;;;;;;;10.83;91.50;99934.39;2131024;82;21080;-75
2022/10/24 03:05:09;;;;;;;15.75;11.22;;;;;;;10.84;91.45;99925.45;2143333;82;21025;-75
2022/10/24 03:08:11;;;;;;;17.73;11.05;;;;;;;10.84;91.39;99932.55;2123544;82;21050;-75
2022/10/24 03:11:13;;;;;;;13.65;10.08;;;;;;;10.83;91.38;99925.09;2137176;82;21113;-75
2022/10/24 03:14:14;;;;;;;15.43;10.28;;;;;;;10.84;91.32;99930.75;2131292;82;21018;-75
2022/10/24 03:17:15;;;;;;;18.48;11.78;;;;;;;10.82;91.05;99923.95;2134290;82;21111;-77
2022/10/24 03:20:16;;;;;;;14.45;10.32;;;;;;;10.74;90.97;99928.80;2129529;82;21485;-76
2022/10/24 03:23:18;;;;;;;16.02;9.95;;;;;;;10.69;91.07;99931.95;2133384;82;21505;-74
2022/10/24 03:26:19;;;;;;;14.15;9.20;;;;;;;10.68;91.14;99926.33;2129582;82;21032;-75
2022/10/24 03:29:20;;;;;;;13.93;10.08;;;;;;;10.63;91.08;99926.52;2129885;82;21045;-78
2022/10/24 03:32:26;;;;;;;12.90;9.68;;;;;;;10.61;91.26;99922.70;2135423;82;21022;-74
2022/10/24 03:35:27;;;;;;;11.48;9.40;;;;;;;10.59;91.10;99921.20;2134721;82;21021;-74
2022/10/24 03:38:28;;;;;;;12.07;9.58;;;;;;;10.59;91.12;99920.73;2134137;82;21017;-77
2022/10/24 03:41:29;;;;;;;13.00;9.73;;;;;;;10.58;91.02;99913.75;2135875;82;20994;-74
2022/10/24 03:44:31;;;;;;;19.17;10.60;;;;;;;10.51;91.07;99905.66;2130455;82;21096;-75
2022/10/24 03:47:32;;;;;;;15.08;10.10;;;;;;;10.48;91.08;99902.53;2133289;82;21085;-74
2022/10/24 03:50:33;;;;;;;12.78;9.65;;;;;;;10.43;91.23;99908.84;2131526;82;21057;-74
2022/10/24 03:53:34;;;;;;;12.60;9.85;;;;;;;10.42;91.34;99909.35;2133552;82;21595;-75
2022/10/24 03:56:36;;;;;;;14.68;10.85;;;;;;;10.35;91.15;99911.02;2138165;82;21557;-74
2022/10/24 03:59:37;;;;;;;18.85;10.38;;;;;;;10.28;91.18;99909.55;2133607;82;21014;-74
2022/10/24 04:02:38;;;;;;;12.68;9.38;;;;;;;10.26;91.37;99900.90;2127915;82;21398;-75
2022/10/24 04:05:39;;;;;;;14.07;9.55;;;;;;;10.25;91.54;99903.23;2129787;82;21018;-74
2022/10/24 04:08:40;;;;;;;18.37;10.05;;;;;;;10.26;91.52;99914.16;2134162;82;21307;-75
2022/10/24 04:11:41;;;;;;;13.88;10.68;;;;;;;10.26;91.37;99919.46;2129896;82;21096;-74
2022/10/24 04:14:42;;;;;;;15.28;11.43;;;;;;;10.26;91.38;99923.95;2133025;82;20939;-75
2022/10/24 04:17:46;;;;;;;14.35;9.90;;;;;;;10.25;91.36;99913.84;2129534;82;21548;-75
2022/10/24 04:20:47;;;;;;;15.13;9.90;;;;;;;10.23;91.26;99902.57;2131488;82;20994;-79
2022/10/24 04:23:48;;;;;;;15.63;10.05;;;;;;;10.16;91.01;99893.63;2137062;82;21046;-75
2022/10/24 04:26:49;;;;;;;14.63;10.53;;;;;;;10.15;91.38;99899.11;2138576;82;20978;-80
2022/10/24 04:29:50;;;;;;;15.53;9.25;;;;;;;10.17;91.53;99889.99;2131850;82;21497;-75
2022/10/24 04:32:51;;;;;;;16.67;9.33;;;;;;;10.19;91.58;99889.81;2133708;82;21061;-76
2022/10/24 04:35:52;;;;;;;11.48;8.13;;;;;;;10.23;91.67;99902.57;2125866;82;21077;-75
2022/10/24 04:38:54;;;;;;;14.18;9.55;;;;;;;10.27;91.84;99903.90;2130339;82;21582;-77
2022/10/24 04:41:57;;;;;;;12.63;9.60;;;;;;;10.31;91.67;99899.93;2134976;82;21052;-75
2022/10/24 04:44:58;;;;;;;17.27;10.90;;;;;;;10.35;91.82;99906.22;2133778;82;21660;-75
2022/10/24 04:47:59;;;;;;;23.35;13.20;;;;;;;10.38;91.81;99906.69;2135027;82;21049;-73
2022/10/24 04:51:00;;;;;;;22.17;12.33;;;;;;;10.43;91.79;99912.83;2134546;82;21065;-74
2022/10/24 04:54:01;;;;;;;14.55;9.90;;;;;;;10.46;91.69;99920.44;2133262;82;21383;-71
2022/10/24 04:57:03;;;;;;;12.90;9.55;;;;;;;10.48;91.68;99907.33;2134431;82;21123;-71
2022/10/24 05:00:06;;;;;;;15.98;9.23;;;;;;;10.50;91.63;99917.28;2132304;83;21474;-73
2022/10/24 05:03:07;;;;;;;14.85;10.55;;;;;;;10.50;91.49;99908.00;2121273;83;21002;-72
2022/10/24 05:06:08;;;;;;;13.62;9.08;;;;;;;10.52;91.56;99911.79;2125274;83;21005;-72
2022/10/24 05:09:10;;;;;;;23.75;12.28;;;;;;;10.54;91.54;99920.41;2125475;83;21060;-71
2022/10/24 05:12:12;;;;;;;13.98;9.78;;;;;;;10.54;91.45;99912.45;2121412;82;21010;-72
2022/10/24 05:15:13;;;;;;;13.58;10.00;;;;;;;10.50;91.35;99917.28;2117410;83;21567;-72
2022/10/24 05:18:14;;;;;;;11.88;9.20;;;;;;;10.49;91.50;99921.42;2116719;83;21477;-72
2022/10/24 05:21:16;;;;;;;12.53;9.10;;;;;;;10.50;91.56;99942.96;2128940;83;21094;-72
2022/10/24 05:24:17;;;;;;;12.82;9.33;;;;;;;10.53;91.65;99933.33;2125133;83;21050;-72
2022/10/24 05:27:23;;;;;;;13.98;10.60;;;;;;;10.52;91.54;99927.20;2117880;83;21048;-72
2022/10/24 05:30:24;;;;;;;10.35;8.93;;;;;;;10.49;91.52;99932.86;2081436;84;21081;-73
2022/10/24 05:33:26;;;;;;;15.72;9.48;;;;;;;10.42;91.58;99931.08;2131932;82;21061;-72
2022/10/24 05:36:27;;;;;;;16.45;10.10;;;;;;;10.41;91.68;99933.37;2096747;82;21080;-72
2022/10/24 05:39:28;;;;;;;12.23;9.50;;;;;;;10.40;91.73;99943.67;2123356;82;21085;-72
2022/10/24 05:42:29;;;;;;;14.28;9.95;;;;;;;10.38;91.69;99940.35;2131131;82;21041;-73
2022/10/24 05:45:30;;;;;;;13.38;8.83;;;;;;;10.38;91.80;99933.72;2097906;82;21030;-72
2022/10/24 05:48:31;;;;;;;12.80;8.80;;;;;;;10.39;91.94;99935.36;2128691;82;21516;-72
2022/10/24 05:51:32;;;;;;;9.80;7.70;;;;;;;10.38;91.87;99933.22;2120943;82;21545;-71
2022/10/24 05:54:33;;;;;;;11.03;7.78;;;;;;;10.34;91.91;99917.33;2131055;82;20993;-72
2022/10/24 05:57:37;;;;;;;13.35;8.33;;;;;;;10.27;91.89;99927.77;2117548;82;21489;-73
2022/10/24 06:00:38;;;;;;;13.32;8.28;;;;;;;10.27;92.09;99934.40;2109891;84;21025;-72
2022/10/24 06:03:39;;;;;;;14.63;8.70;;;;;;;10.29;92.12;99941.70;2108113;84;21068;-74
2022/10/24 06:06:44;;;;;;;10.10;7.75;;;;;;;10.31;92.05;99948.99;2100066;84;21076;-74
2022/10/24 06:09:46;;;;;;;12.88;8.25;;;;;;;10.34;91.96;99950.48;2106445;84;21555;-72
2022/10/24 06:12:47;;;;;;;10.28;7.85;;;;;;;10.34;91.61;99957.11;2101938;84;21022;-73
2022/10/24 06:15:48;;;;;;;12.47;9.30;;;;;;;10.36;91.65;99955.59;2100618;84;21062;-73
2022/10/24 06:18:49;;;;;;;10.45;8.65;;;;;;;10.36;91.54;99956.92;2110487;84;21505;-73
2022/10/24 06:21:50;;;;;;;15.18;10.35;;;;;;;10.38;91.61;99958.92;2102387;84;21002;-71
2022/10/24 06:24:51;;;;;;;10.80;7.50;;;;;;;10.43;91.68;99953.94;2107274;84;21139;-71
2022/10/24 06:27:52;;;;;;;16.48;10.40;;;;;;;10.49;91.91;99946.63;2103698;84;21030;-71
2022/10/24 06:30:53;;;;;;;12.65;8.68;;;;;;;10.59;92.31;99949.92;2105110;84;21445;-72
2022/10/24 06:33:55;;;;;;;12.73;9.60;;;;;;;10.66;92.46;99949.55;2103279;84;21017;-71
2022/10/24 06:36:56;;;;;;;14.78;8.45;;;;;;;10.74;92.50;99955.33;2111323;84;21085;-71
2022/10/24 06:39:57;;;;;;;11.65;9.35;;;;;;;10.81;92.72;99958.94;2107902;84;21088;-73
2022/10/24 06:42:58;;;;;;;13.25;8.93;;;;;;;10.89;92.78;99952.77;2100399;84;21135;-71
2022/10/24 06:45:59;;;;;;;12.47;10.13;;;;;;;10.98;92.81;99959.22;2102551;84;21049;-72
2022/10/24 06:49:00;;;;;;;16.75;10.05;;;;;;;11.08;92.79;99967.46;2106885;84;21557;-71
2022/10/24 06:52:01;;;;;;;20.32;11.75;;;;;;;11.16;92.78;99969.58;2103717;84;21682;-72
2022/10/24 06:55:04;;;;;;;19.67;13.58;;;;;;;11.26;92.80;99964.53;2104226;84;20998;-71
2022/10/24 06:58:05;;;;;;;30.17;16.05;;;;;;;11.36;92.76;99970.47;2122302;82;21042;-72
2022/10/24 07:01:14;;;;;;;21.42;11.65;;;;;;;11.45;92.71;99965.42;2127707;82;21088;-71
2022/10/24 07:04:15;;;;;;;14.45;8.95;;;;;;;11.54;92.70;99972.83;2128814;82;21026;-71
2022/10/24 07:07:19;;;;;;;17.25;8.35;;;;;;;11.62;92.61;99962.97;2133485;82;21037;-71
2022/10/24 07:10:21;;;;;;;10.30;7.03;;;;;;;11.71;92.56;99969.55;2128108;82;21516;-71
2022/10/24 07:13:22;;;;;;;10.35;6.90;;;;;;;11.79;92.52;99974.81;2134607;82;21065;-73
2022/10/24 07:16:24;;;;;;;10.10;6.75;;;;;;;11.86;92.51;99962.50;2133067;82;21005;-72
2022/10/24 07:19:25;;;;;;;7.58;6.30;;;;;;;11.94;92.57;99954.46;2134323;82;20938;-71
2022/10/24 07:22:26;;;;;;;7.67;5.55;;;;;;;12.03;92.62;99957.37;2133800;82;21494;-73
2022/10/24 07:25:27;;;;;;;7.80;6.00;;;;;;;12.10;92.63;99960.94;2133484;82;21116;-71
2022/10/24 07:28:29;;;;;;;14.10;6.53;;;;;;;12.18;92.76;99957.89;2138502;82;21623;-71
2022/10/24 07:31:33;;;;;;;8.78;6.20;;;;;;;12.27;92.74;99974.09;2132195;82;21445;-71
2022/10/24 07:34:34;;;;;;;7.83;5.83;;;;;;;12.36;92.74;99958.39;2131613;82;21101;-72
2022/10/24 07:37:35;;;;;;;7.17;4.95;;;;;;;12.47;92.70;99963.27;2132876;82;21897;-71
2022/10/24 07:40:36;;;;;;;9.00;6.33;;;;;;;12.56;92.60;99970.14;2124078;82;21061;-71
2022/10/24 07:43:37;;;;;;;12.20;7.67;;;;;;;12.68;92.47;99973.67;2129700;82;21045;-71
2022/10/24 07:46:41;;;;;;;19.32;10.18;;;;;;;12.78;92.47;99971.55;2135031;82;20989;-72
2022/10/24 07:49:42;;;;;;;15.93;8.43;;;;;;;12.91;92.46;99977.05;2131448;82;21128;-71
2022/10/24 07:52:43;;;;;;;30.92;12.78;;;;;;;13.03;92.32;99976.06;2136366;82;20993;-74
2022/10/24 07:55:45;;;;;;;15.90;7.72;;;;;;;13.17;92.28;99973.06;2131056;82;21087;-71
2022/10/24 07:58:47;;;;;;;13.85;7.17;;;;;;;13.30;92.21;99968.44;2131753;82;21010;-72
2022/10/24 08:01:48;;;;;;;10.50;6.35;;;;;;;13.43;92.20;99977.88;2146725;82;21030;-71
2022/10/24 08:04:51;;;;;;;10.10;5.92;;;;;;;13.56;91.96;99980.70;2138293;82;21597;-72
2022/10/24 08:07:52;;;;;;;8.10;5.10;;;;;;;13.71;91.75;99976.63;2138887;82;21106;-71
2022/10/24 08:10:53;;;;;;;6.12;4.83;;;;;;;13.86;91.76;99980.08;2147756;82;21433;-71
2022/10/24 08:13:57;;;;;;;9.60;5.40;;;;;;;14.07;91.91;99986.40;2135689;82;21008;-71
2022/10/24 08:16:58;;;;;;;10.88;4.78;;;;;;;14.28;91.71;99982.38;2136654;82;21100;-71
2022/10/24 08:19:59;;;;;;;7.42;4.72;;;;;;;14.51;91.48;99982.62;2111519;82;21128;-71
2022/10/24 08:23:00;;;;;;;11.12;4.95;;;;;;;14.75;91.00;99978.19;2140357;82;21124;-71
2022/10/24 08:26:10;;;;;;;6.28;4.55;;;;;;;14.98;90.87;99977.89;2139508;82;21045;-72
2022/10/24 08:29:13;;;;;;;8.28;4.30;;;;;;;15.12;90.27;99975.25;2136749;82;21032;-72
2022/10/24 08:32:13;;;;;;;9.88;4.35;;;;;;;15.18;89.50;99962.45;2134812;82;21010;-72
2022/10/24 08:35:20;;;;;;;5.75;4.37;;;;;;;15.23;89.14;99967.50;2140850;82;21095;-71
2022/10/24 08:38:21;;;;;;;7.87;3.85;;;;;;;15.25;88.84;99966.77;2135241;82;21045;-72
2022/10/24 08:41:40;;;;;;;12.23;4.70;;;;;;;15.27;88.33;99964.42;2134646;82;21051;-71
2022/10/24 08:44:46;;;;;;;10.50;5.42;;;;;;;15.25;88.21;99957.93;2141564;82;21053;-72
2022/10/24 08:48:01;;;;;;;8.08;5.25;;;;;;;15.33;88.34;99968.97;2136012;82;21060;-74
2022/10/24 08:51:14;;;;;;;12.73;4.97;;;;;;;15.40;88.28;99967.11;2130160;82;21044;-71
2022/10/24 08:54:22;;;;;;;8.18;4.10;;;;;;;15.45;87.55;99961.99;2138966;82;21037;-71
2022/10/24 08:57:27;;;;;;;7.28;4.45;;;;;;;15.50;87.46;99964.07;2139659;82;21414;-71
2022/10/24 09:00:35;;;;;;;7.78;4.10;;;;;;;15.57;87.49;99970.23;2134201;82;21078;-71
2022/10/24 09:03:49;;;;;;;8.25;4.05;;;;;;;15.65;87.54;99970.90;2130252;82;21033;-71
2022/10/24 09:06:53;;;;;;;6.67;4.15;;;;;;;15.76;87.31;99970.00;2131669;82;21573;-71
2022/10/24 09:10:43;;;;;;;8.15;3.80;;;;;;;15.89;87.27;99973.52;2135695;82;21584;-72
2022/10/24 09:13:44;;;;;;;8.10;3.42;;;;;;;16.04;86.78;99971.97;2093088;83;21054;-71
2022/10/24 09:17:00;;;;;;;6.53;3.45;;;;;;;16.32;86.77;99967.73;2047917;85;21080;-73
2022/10/24 09:20:27;;;;;;;6.60;4.15;;;;;;;16.52;86.17;99962.34;2131653;82;21013;-71
2022/10/24 09:23:32;;;;;;;6.05;3.20;;;;;;;16.73;85.93;99956.44;2134935;82;21087;-71
2022/10/24 09:26:37;;;;;;;7.40;3.17;;;;;;;16.92;85.30;99968.98;2127789;82;21112;-73
2022/10/24 09:29:38;;;;;;;5.90;2.80;;;;;;;17.14;84.50;99968.14;2130504;82;21061;-71
2022/10/24 09:32:41;;;;;;;5.65;2.58;;;;;;;17.49;84.38;99974.48;2127849;82;21499;-71
2022/10/24 09:35:44;;;;;;;6.12;2.85;;;;;;;17.96;83.60;99969.63;2133462;82;21010;-74
2022/10/24 09:38:47;;;;;;;6.28;2.52;;;;;;;18.42;83.05;99965.73;2136680;82;21013;-75
2022/10/24 09:41:49;;;;;;;10.55;3.42;;;;;;;18.83;82.29;99971.52;2132980;82;21049;-73
2022/10/24 09:44:50;;;;;;;6.58;2.75;;;;;;;19.27;81.62;99973.05;2135831;82;20978;-71
2022/10/24 09:48:02;;;;;;;5.58;2.30;;;;;;;19.64;79.97;99967.56;2127414;82;21137;-71
2022/10/24 09:51:08;;;;;;;4.30;2.20;;;;;;;19.98;78.43;99967.91;2138793;81;20971;-73
2022/10/24 09:54:22;;;;;;;4.65;2.10;;;;;;;20.21;77.94;99968.45;2104013;82;21091;-71
2022/10/24 09:57:23;;;;;;;6.30;2.40;;;;;;;20.44;76.46;99967.62;2132029;82;20979;-71
2022/10/24 10:00:35;;;;;;;5.03;2.52;;;;;;;20.69;76.13;99964.70;2097294;82;21134;-69
2022/10/24 10:03:36;;;;;;;5.22;2.50;;;;;;;20.93;74.83;99970.34;2101534;84;21100;-68
2022/10/24 10:06:43;;;;;;;5.80;2.77;;;;;;;21.04;74.11;99972.73;2103413;84;21042;-69
2022/10/24 10:09:55;;;;;;;7.87;2.95;;;;;;;21.21;74.10;99968.74;2100670;84;21625;-70
2022/10/24 10:13:01;;;;;;;6.87;2.00;;;;;;;21.46;73.80;99961.16;2100564;84;21069;-70
2022/10/24 10:16:06;;;;;;;3.08;1.90;;;;;;;21.72;71.93;99956.20;2093796;84;21049;-71
2022/10/24 10:19:18;;;;;;;7.28;2.77;;;;;;;21.87;71.79;99956.98;2092830;83;21093;-70
2022/10/24 10:22:31;;;;;;;8.15;2.58;;;;;;;22.00;70.13;99961.26;2102479;84;21055;-71
2022/10/24 10:25:32;;;;;;;5.70;2.12;;;;;;;22.00;68.80;99953.97;2102480;84;21105;-70
2022/10/24 10:28:38;;;;;;;4.78;2.12;;;;;;;22.01;68.72;99948.84;2094411;84;21038;-69
2022/10/24 10:31:48;;;;;;;4.85;2.10;;;;;;;22.10;67.77;99945.19;2099453;84;21652;-75
2022/10/24 10:35:04;;;;;;;21.83;4.07;;;;;;;22.11;67.18;99946.84;2097529;83;21543;-72
2022/10/24 10:38:41;;;;;;;3.67;2.27;;;;;;;22.13;65.30;99935.23;2096574;84;21026;-74
2022/10/24 10:42:08;;;;;;;8.50;2.00;;;;;;;21.97;66.39;99937.44;2043143;85;21052;-71
2022/10/24 10:45:32;;;;;;;6.55;1.90;;;;;;;21.75;65.07;99934.11;2044538;84;21074;-73
2022/10/24 10:49:11;;;;;;;4.05;1.87;;;;;;;21.54;66.18;99935.66;2100104;84;21034;-71
2022/10/24 10:52:32;;;;;;;4.33;2.12;;;;;;;21.47;65.87;99935.80;2095099;84;21001;-70
2022/10/24 10:55:59;;;;;;;5.87;2.55;;;;;;;21.30;65.79;99936.80;2101665;84;21588;-71
2022/10/24 10:59:43;;;;;;;6.28;2.02;;;;;;;21.15;65.41;99933.29;2108844;82;21090;-71
2022/10/24 11:03:04;;;;;;;3.72;2.08;;;;;;;21.15;65.90;99934.64;2134371;81;21563;-72
2022/10/24 11:06:26;;;;;;;5.60;2.05;;;;;;;21.13;65.34;99924.61;2129336;82;21160;-72
2022/10/24 11:09:42;;;;;;;7.45;2.42;;;;;;;21.10;64.60;99921.05;2121137;82;21108;-72
2022/10/24 11:12:45;;;;;;;5.37;2.47;;;;;;;21.03;65.15;99922.52;2129860;82;21557;-71
2022/10/24 11:15:51;;;;;;;2.55;1.70;;;;;;;21.14;65.53;99924.89;2132800;82;21052;-72
2022/10/24 11:19:00;;;;;;;7.42;2.02;;;;;;;21.39;65.19;99922.69;2135285;82;21525;-71
2022/10/24 11:22:04;;;;;;;4.87;1.90;;;;;;;21.67;63.56;99926.41;2131212;82;21147;-72
2022/10/24 11:25:23;;;;;;;6.00;2.00;;;;;;;21.80;63.66;99920.70;2130095;82;21029;-71
2022/10/24 11:29:00;;;;;;;4.37;2.35;;;;;;;21.99;63.74;99915.03;2127577;82;21069;-71
2022/10/24 11:32:22;;;;;;;4.45;1.85;;;;;;;22.12;63.45;99916.86;2127359;82;21085;-71
2022/10/24 11:35:31;;;;;;;3.52;1.62;;;;;;;22.20;62.91;99912.95;2106512;82;20990;-75
2022/10/24 11:38:38;;;;;;;4.20;2.00;;;;;;;22.23;62.19;99901.65;2131624;82;21013;-73
2022/10/24 11:41:44;;;;;;;7.40;2.02;;;;;;;22.27;61.19;99891.99;2125771;82;21034;-72
2022/10/24 11:45:06;;;;;;;4.35;2.00;;;;;;;22.30;61.42;99892.84;2118404;82;21572;-71
2022/10/24 11:48:21;;;;;;;5.10;2.30;;;;;;;22.37;61.67;99889.95;2125859;82;21062;-72
2022/10/24 11:51:32;;;;;;;3.33;2.15;;;;;;;22.52;61.07;99886.63;2130172;82;21019;-73
2022/10/24 11:54:41;;;;;;;3.02;1.75;;;;;;;22.53;61.22;99885.03;2129328;82;21026;-73
2022/10/24 11:57:48;;;;;;;6.90;2.13;;;;;;;22.46;60.40;99880.33;2129585;82;20959;-73
2022/10/24 12:01:10;;;;;;;3.92;1.80;;;;;;;22.43;60.77;99878.67;2126563;82;21038;-75
2022/10/24 12:04:29;;;;;;;7.53;2.17;;;;;;;22.34;60.62;99885.05;2131566;82;21037;-72
2022/10/24 12:07:42;;;;;;;5.23;2.50;;;;;;;22.23;59.91;99878.68;2136832;82;21022;-72
2022/10/24 12:11:19;;;;;;;2.83;1.70;;;;;;;22.18;60.31;99877.25;2112225;82;20974;-72
2022/10/24 12:14:54;;;;;;;5.60;1.77;;;;;;;22.23;58.95;99874.62;2132831;82;21081;-72
2022/10/24 12:18:06;;;;;;;4.87;2.10;;;;;;;22.22;58.87;99867.59;2125405;82;21160;-73
2022/10/24 12:21:22;;;;;;;6.53;2.25;;;;;;;22.22;59.56;99867.59;2132444;82;21541;-81
2022/10/24 12:24:34;;;;;;;4.10;1.80;;;;;;;22.26;59.74;99865.20;2130250;82;21013;-72
2022/10/24 12:27:40;;;;;;;4.80;1.90;;;;;;;22.33;60.04;99854.50;2131565;82;21018;-78
2022/10/24 12:30:42;;;;;;;9.55;2.37;;;;;;;22.33;59.62;99850.45;2132922;82;21089;-73
2022/10/24 12:33:46;;;;;;;5.92;2.30;;;;;;;22.25;59.31;99841.42;2130560;82;21718;-73
2022/10/24 12:37:20;;;;;;;4.22;1.80;;;;;;;22.18;59.37;99847.53;2137229;82;21013;-80
2022/10/24 12:40:58;;;;;;;6.17;2.40;;;;;;;22.19;59.72;99841.08;2129812;82;21650;-73
2022/10/24 12:44:36;;;;;;;8.93;2.33;;;;;;;22.16;59.76;99842.36;2134063;82;21067;-75
2022/10/24 12:48:00;;;;;;;11.48;2.45;;;;;;;22.09;59.58;99840.36;2126476;82;21582;-81
2022/10/24 12:51:26;;;;;;;8.33;2.95;;;;;;;22.15;59.99;99833.14;2123198;82;21564;-73
2022/10/24 12:54:44;;;;;;;4.65;2.62;;;;;;;22.16;59.36;99829.39;2128445;82;21439;-73
2022/10/24 12:57:46;;;;;;;9.70;2.75;;;;;;;22.16;59.37;99824.80;2126587;82;21014;-72
2022/10/24 13:01:01;;;;;;;5.47;2.50;;;;;;;22.04;58.31;99827.31;2131953;82;21041;-73
2022/10/24 13:04:29;;;;;;;9.38;2.80;;;;;;;21.88;58.98;99821.71;2128466;82;21070;-73
2022/10/24 13:07:52;;;;;;;7.83;2.90;;;;;;;21.71;58.90;99819.03;2129422;82;21677;-72
2022/10/24 13:11:05;;;;;;;11.70;3.20;;;;;;;21.63;59.26;99828.90;2125354;82;21023;-73
2022/10/24 13:14:36;;;;;;;8.43;2.45;;;;;;;21.65;59.11;99821.38;2131295;82;21061;-76
2022/10/24 13:17:49;;;;;;;4.55;2.50;;;;;;;21.73;59.59;99811.21;2125086;82;21069;-72
2022/10/24 13:21:07;;;;;;;8.95;2.17;;;;;;;21.76;58.97;99820.97;2073440;84;21504;-72
2022/10/24 13:24:32;;;;;;;8.15;3.02;;;;;;;21.73;59.15;99822.02;2076557;84;21091;-73
2022/10/24 13:27:34;;;;;;;11.50;3.50;;;;;;;21.66;58.98;99824.35;2057541;84;21687;-72
2022/10/24 13:30:36;;;;;;;6.00;2.50;;;;;;;21.51;58.55;99824.63;2089442;84;21501;-74
2022/10/24 13:33:43;;;;;;;6.90;2.50;;;;;;;21.27;58.79;99829.62;2059522;84;20990;-73
2022/10/24 13:36:52;;;;;;;8.60;3.35;;;;;;;21.12;59.32;99832.08;2067159;86;21129;-72
2022/10/24 13:40:16;;;;;;;7.28;2.52;;;;;;;21.08;59.43;99834.14;2092672;84;20996;-72
2022/10/24 13:43:18;;;;;;;8.13;2.70;;;;;;;20.94;59.51;99831.73;2088544;84;20997;-73
2022/10/24 13:46:49;;;;;;;13.13;3.05;;;;;;;20.79;59.92;99829.59;2127409;82;21655;-73
2022/10/24 13:50:11;;;;;;;11.65;2.85;;;;;;;20.67;59.81;99844.19;2134847;82;20986;-72
2022/10/24 13:53:33;;;;;;;9.48;3.17;;;;;;;20.51;60.46;99850.56;2129556;82;21045;-80
2022/10/24 13:56:40;;;;;;;8.78;3.02;;;;;;;20.31;60.57;99855.01;2135348;82;21096;-74
2022/10/24 13:59:41;;;;;;;10.72;3.35;;;;;;;20.15;60.58;99847.11;2130073;82;21645;-75
2022/10/24 14:02:43;;;;;;;10.78;3.52;;;;;;;20.05;60.96;99856.34;2138384;82;21052;-75
2022/10/24 14:05:55;;;;;;;10.55;3.15;;;;;;;19.98;61.34;99850.23;2117701;82;22330;-75
2022/10/24 14:09:00;;;;;;;8.98;3.67;;;;;;;19.90;61.41;99846.55;2127484;82;21718;-76
2022/10/24 14:12:01;;;;;;;10.75;3.05;;;;;;;19.81;61.61;99854.69;2121640;82;21080;-75
2022/10/24 14:15:05;;;;;;;11.45;3.87;;;;;;;19.74;61.78;99860.70;2130856;82;21641;-74
2022/10/24 14:18:13;;;;;;;8.13;3.50;;;;;;;19.66;61.56;99861.36;2128624;82;21018;-74
2022/10/24 14:21:21;;;;;;;7.28;2.98;;;;;;;19.54;61.56;99871.27;2137079;82;20982;-75
2022/10/24 14:24:22;;;;;;;9.18;3.50;;;;;;;19.45;61.82;99873.97;2133556;82;21109;-74
2022/10/24 14:27:24;;;;;;;9.13;3.75;;;;;;;19.34;62.00;99877.45;2136262;82;21069;-74
2022/10/24 14:30:30;;;;;;;11.80;4.53;;;;;;;19.24;62.22;99882.06;2122357;82;21118;-74